Time;durP1;ratioP1;P1;durP2;ratioP2;P2;SDS_P1;SDS_P2;PMS_P1;PMS_P2;Temp;Humidity;BMP_temperature;BMP_pressure;BME280_temperature;BME280_humidity;BME280_pressure;Samples;Min_cycle;Max_cycle;Signal;HPM_P1;HPM_P2
2022/02/15 00:00:02;;;;;;;;;;;;;;;;;;4995085;28;19918;-68
2022/02/15 00:02:37;;;;;;;;;;;;;;;;;;4991128;28;19968;-69
2022/02/15 00:05:02;;;;;;;;;;;;;;;;;;4994853;28;19960;-68
2022/02/15 00:07:28;;;;;;;;;;;;;;;;;;4995834;28;19961;-68
2022/02/15 00:09:53;;;;;;;;;;;;;;;;;;4992724;28;19960;-68
2022/02/15 00:12:18;;;;;;;;;;;;;;;;;;4990242;28;19917;-68
2022/02/15 00:14:43;;;;;;;;;;;;;;;;;;4998219;28;19910;-68
2022/02/15 00:17:08;;;;;;;;;;;;;;;;;;4995400;28;20715;-69
2022/02/15 00:19:34;;;;;;;;;;;;;;;;;;5000877;28;19910;-69
2022/02/15 00:21:59;;;;;;;;;;;;;;;;;;4994651;28;20492;-68
2022/02/15 00:24:24;;;;;;;;;;;;;;;;;;4996766;28;20398;-68
2022/02/15 00:26:49;;;;;;;;;;;;;;;;;;5003755;28;19917;-68
2022/02/15 00:29:15;;;;;;;;;;;;;;;;;;4998907;28;19967;-68
2022/02/15 00:31:42;;;;;;;;;;;;;;;;;;4985721;28;19924;-67
2022/02/15 00:34:07;;;;;;;;;;;;;;;;;;4999462;28;19914;-69
2022/02/15 00:36:34;;;;;;;;;;;;;;;;;;4997768;28;19914;-69
2022/02/15 00:38:59;;;;;;;;;;;;;;;;;;5001531;28;19940;-69
2022/02/15 00:41:26;;;;;;;;;;;;;;;;;;4999424;28;19922;-70
2022/02/15 00:43:52;;;;;;;;;;;;;;;;;;5000108;28;19922;-69
2022/02/15 00:46:17;;;;;;;;;;;;;;;;;;4997288;28;19917;-69
2022/02/15 00:48:42;;;;;;;;;;;;;;;;;;5000033;28;19910;-69
2022/02/15 00:51:07;;;;;;;;;;;;;;;;;;4998163;28;19913;-69
2022/02/15 00:53:32;;;;;;;;;;;;;;;;;;5000218;28;19913;-69
2022/02/15 00:55:58;;;;;;;;;;;;;;;;;;4998403;28;19910;-69
2022/02/15 00:58:23;;;;;;;;;;;;;;;;;;4998087;28;19914;-69
2022/02/15 01:00:49;;;;;;;;;;;;;;;;;;4997974;28;19988;-69
2022/02/15 01:03:15;;;;;;;;;;;;;;;;;;4992508;28;19925;-69
2022/02/15 01:05:40;;;;;;;;;;;;;;;;;;5001129;28;19929;-69
2022/02/15 01:08:06;;;;;;;;;;;;;;;;;;4994376;28;19914;-69
2022/02/15 01:10:31;;;;;;;;;;;;;;;;;;4997404;28;19917;-70
2022/02/15 01:12:56;;;;;;;;;;;;;;;;;;4985960;28;20314;-69
2022/02/15 01:15:22;;;;;;;;;;;;;;;;;;5003504;28;19917;-69
2022/02/15 01:17:47;;;;;;;;;;;;;;;;;;5000884;28;19914;-70
2022/02/15 01:20:12;;;;;;;;;;;;;;;;;;4998777;28;20005;-69
2022/02/15 01:22:37;;;;;;;;;;;;;;;;;;5000941;28;19921;-69
2022/02/15 01:25:02;;;;;;;;;;;;;;;;;;4996909;28;19956;-69
2022/02/15 01:27:28;;;;;;;;;;;;;;;;;;5000332;28;19917;-70
2022/02/15 01:29:54;;;;;;;;;;;;;;;;;;4998939;28;19921;-69
2022/02/15 01:32:20;;;;;;;;;;;;;;;;;;4998336;28;19914;-69
2022/02/15 01:34:45;;;;;;;;;;;;;;;;;;4998942;28;19945;-69
2022/02/15 01:37:10;;;;;;;;;;;;;;;;;;5001875;28;19932;-69
2022/02/15 01:39:35;;;;;;;;;;;;;;;;;;4999617;28;19995;-69
2022/02/15 01:42:01;;;;;;;;;;;;;;;;;;5003031;28;20359;-70
2022/02/15 01:44:26;;;;;;;;;;;;;;;;;;4996386;28;20499;-69
2022/02/15 01:46:51;;;;;;;;;;;;;;;;;;5000851;28;20660;-69
2022/02/15 01:49:17;;;;;;;;;;;;;;;;;;4998557;28;19914;-69
2022/02/15 01:51:42;;;;;;;;;;;;;;;;;;4998066;28;20263;-69
2022/02/15 01:54:07;;;;;;;;;;;;;;;;;;4998480;28;19910;-69
2022/02/15 01:56:32;;;;;;;;;;;;;;;;;;5001953;28;20318;-69
2022/02/15 01:59:01;;;;;;;;;;;;;;;;;;4998403;28;19914;-69
2022/02/15 02:01:28;;;;;;;;;;;;;;;;;;4993402;28;20015;-69
2022/02/15 02:06:57;;;;;;;;;;;;;;;;;;5004534;28;19935;-69
2022/02/15 02:09:24;;;;;;;;;;;;;;;;;;4999620;28;19957;-69
2022/02/15 02:11:49;;;;;;;;;;;;;;;;;;5013852;28;20323;-69
2022/02/15 02:14:29;;;;;;;;;;;;;;;;;;5001401;28;19913;-69
2022/02/15 02:16:54;;;;;;;;;;;;;;;;;;4998242;28;19993;-69
2022/02/15 02:19:24;;;;;;;;;;;;;;;;;;5005681;28;19917;-69
2022/02/15 02:21:50;;;;;;;;;;;;;;;;;;5003754;28;19956;-69
2022/02/15 02:24:17;;;;;;;;;;;;;;;;;;4999886;28;19918;-69
2022/02/15 02:26:44;;;;;;;;;;;;;;;;;;4996169;28;20001;-69
2022/02/15 02:29:09;;;;;;;;;;;;;;;;;;4998855;28;19930;-69
2022/02/15 02:31:37;;;;;;;;;;;;;;;;;;4997219;28;20441;-69
2022/02/15 02:34:08;;;;;;;;;;;;;;;;;;4984470;28;19913;-69
2022/02/15 02:36:35;;;;;;;;;;;;;;;;;;4997709;28;19909;-69
2022/02/15 02:39:00;;;;;;;;;;;;;;;;;;4995465;28;19920;-69
2022/02/15 02:41:25;;;;;;;;;;;;;;;;;;4999034;28;19936;-69
2022/02/15 02:43:51;;;;;;;;;;;;;;;;;;4998080;28;19940;-69
2022/02/15 02:46:16;;;;;;;;;;;;;;;;;;4995310;28;19920;-69
2022/02/15 02:48:41;;;;;;;;;;;;;;;;;;4996895;28;20025;-69
2022/02/15 02:51:06;;;;;;;;;;;;;;;;;;4994991;28;20022;-69
2022/02/15 02:53:32;;;;;;;;;;;;;;;;;;4995365;28;19921;-69
2022/02/15 02:55:57;;;;;;;;;;;;;;;;;;4995520;28;19926;-69
2022/02/15 02:58:22;;;;;;;;;;;;;;;;;;4998969;28;19913;-69
2022/02/15 03:00:47;;;;;;;;;;;;;;;;;;5002865;28;19929;-68
2022/02/15 03:03:17;;;;;;;;;;;;;;;;;;5005735;28;20339;-68
2022/02/15 03:05:46;;;;;;;;;;;;;;;;;;4996771;28;19917;-70
2022/02/15 03:08:12;;;;;;;;;;;;;;;;;;5001382;28;19924;-70
2022/02/15 03:10:37;;;;;;;;;;;;;;;;;;4982181;28;19975;-70
2022/02/15 03:13:05;;;;;;;;;;;;;;;;;;4996141;28;19914;-67
2022/02/15 03:15:30;;;;;;;;;;;;;;;;;;4997672;28;19921;-68
2022/02/15 03:17:56;;;;;;;;;;;;;;;;;;4999822;28;19929;-68
2022/02/15 03:20:22;;;;;;;;;;;;;;;;;;4998903;28;19917;-68
2022/02/15 03:22:48;;;;;;;;;;;;;;;;;;5001436;28;19913;-67
2022/02/15 03:25:13;;;;;;;;;;;;;;;;;;4996907;28;19924;-68
2022/02/15 03:27:39;;;;;;;;;;;;;;;;;;5002468;28;19918;-68
2022/02/15 03:30:04;;;;;;;;;;;;;;;;;;4984366;28;19913;-68
2022/02/15 03:32:38;;;;;;;;;;;;;;;;;;5003069;28;20445;-68
2022/02/15 03:35:03;;;;;;;;;;;;;;;;;;4992405;28;19941;-68
2022/02/15 03:37:29;;;;;;;;;;;;;;;;;;4981834;28;19922;-68
2022/02/15 03:39:57;;;;;;;;;;;;;;;;;;4983847;28;20009;-68
2022/02/15 03:45:07;;;;;;;;;;;;;;;;;;4997364;28;20033;-68
2022/02/15 03:47:53;;;;;;;;;;;;;;;;;;4955900;28;19929;-67
2022/02/15 03:50:18;;;;;;;;;;;;;;;;;;5002421;28;19918;-68
2022/02/15 03:52:43;;;;;;;;;;;;;;;;;;4997846;28;19945;-67
2022/02/15 03:55:08;;;;;;;;;;;;;;;;;;4993087;28;19916;-68
2022/02/15 03:57:35;;;;;;;;;;;;;;;;;;4997302;28;19976;-68
2022/02/15 04:00:01;;;;;;;;;;;;;;;;;;4984053;28;19998;-68
2022/02/15 04:02:37;;;;;;;;;;;;;;;;;;4995596;28;20410;-68
2022/02/15 04:05:02;;;;;;;;;;;;;;;;;;5004850;28;20452;-68
2022/02/15 04:07:28;;;;;;;;;;;;;;;;;;4996209;28;19914;-68
2022/02/15 04:09:53;;;;;;;;;;;;;;;;;;4991573;28;20001;-69
2022/02/15 04:12:18;;;;;;;;;;;;;;;;;;5001536;28;19913;-68
2022/02/15 04:14:43;;;;;;;;;;;;;;;;;;5000113;28;20224;-68
2022/02/15 04:17:10;;;;;;;;;;;;;;;;;;4997211;28;19914;-68
2022/02/15 04:19:36;;;;;;;;;;;;;;;;;;5001962;28;19929;-69
2022/02/15 04:22:02;;;;;;;;;;;;;;;;;;4992930;28;19921;-68
2022/02/15 04:24:29;;;;;;;;;;;;;;;;;;4997779;28;20011;-68
2022/02/15 04:26:54;;;;;;;;;;;;;;;;;;4995848;28;20051;-68
2022/02/15 04:29:21;;;;;;;;;;;;;;;;;;4980154;28;19921;-70
2022/02/15 04:31:54;;;;;;;;;;;;;;;;;;4996327;28;19920;-69
2022/02/15 04:34:19;;;;;;;;;;;;;;;;;;4995397;28;19914;-68
2022/02/15 04:36:45;;;;;;;;;;;;;;;;;;4998674;28;19921;-69
2022/02/15 04:39:14;;;;;;;;;;;;;;;;;;4990800;28;19914;-68
2022/02/15 04:41:48;;;;;;;;;;;;;;;;;;5000756;28;19926;-69
2022/02/15 04:44:17;;;;;;;;;;;;;;;;;;4996586;28;19918;-69
2022/02/15 04:46:42;;;;;;;;;;;;;;;;;;4996307;28;19909;-69
2022/02/15 04:49:07;;;;;;;;;;;;;;;;;;4992056;28;19913;-69
2022/02/15 04:51:33;;;;;;;;;;;;;;;;;;4993532;28;20005;-69
2022/02/15 04:53:59;;;;;;;;;;;;;;;;;;5001905;28;19914;-69
2022/02/15 04:56:24;;;;;;;;;;;;;;;;;;5001536;28;19913;-68
2022/02/15 04:58:49;;;;;;;;;;;;;;;;;;5001139;28;19956;-68
2022/02/15 05:01:16;;;;;;;;;;;;;;;;;;4993617;28;19918;-68
2022/02/15 05:04:01;;;;;;;;;;;;;;;;;;5002170;28;19980;-68
2022/02/15 05:06:29;;;;;;;;;;;;;;;;;;4993884;28;19921;-68
2022/02/15 05:08:54;;;;;;;;;;;;;;;;;;5003965;28;19914;-68
2022/02/15 05:11:20;;;;;;;;;;;;;;;;;;4998367;28;19967;-68
2022/02/15 05:13:51;;;;;;;;;;;;;;;;;;4998605;28;19913;-68
2022/02/15 05:16:21;;;;;;;;;;;;;;;;;;5007064;28;20036;-68
2022/02/15 05:19:06;;;;;;;;;;;;;;;;;;4999396;28;19913;-68
2022/02/15 05:21:33;;;;;;;;;;;;;;;;;;4999135;28;20009;-69
2022/02/15 05:23:59;;;;;;;;;;;;;;;;;;4997811;28;20008;-68
2022/02/15 05:26:45;;;;;;;;;;;;;;;;;;4981630;28;19945;-68
2022/02/15 05:29:21;;;;;;;;;;;;;;;;;;5001082;28;19918;-69
2022/02/15 05:31:49;;;;;;;;;;;;;;;;;;4999206;28;19921;-69
2022/02/15 05:34:14;;;;;;;;;;;;;;;;;;4987933;28;19945;-68
2022/02/15 05:36:40;;;;;;;;;;;;;;;;;;4997905;28;19910;-68
2022/02/15 05:39:05;;;;;;;;;;;;;;;;;;4989621;28;19914;-69
2022/02/15 05:41:33;;;;;;;;;;;;;;;;;;5003647;28;20384;-69
2022/02/15 05:44:03;;;;;;;;;;;;;;;;;;4988768;28;20726;-68
2022/02/15 05:46:28;;;;;;;;;;;;;;;;;;5004421;28;19917;-68
2022/02/15 05:48:54;;;;;;;;;;;;;;;;;;4999621;28;19976;-68
2022/02/15 05:51:42;;;;;;;;;;;;;;;;;;4996058;28;20333;-69
2022/02/15 05:54:14;;;;;;;;;;;;;;;;;;4987265;28;20317;-68
2022/02/15 05:56:40;;;;;;;;;;;;;;;;;;4997007;28;20025;-68
2022/02/15 05:59:35;;;;;;;;;;;;;;;;;;4986393;28;19957;-68
2022/02/15 06:02:04;;;;;;;;;;;;;;;;;;4998202;28;19921;-68
2022/02/15 06:04:55;;;;;;;;;;;;;;;;;;4998972;28;19944;-68
2022/02/15 06:07:29;;;;;;;;;;;;;;;;;;4985349;28;19917;-68
2022/02/15 06:10:01;;;;;;;;;;;;;;;;;;4996500;28;19921;-68
2022/02/15 06:12:26;;;;;;;;;;;;;;;;;;4995787;28;19910;-69
2022/02/15 06:14:59;;;;;;;;;;;;;;;;;;4997838;28;20597;-69
2022/02/15 06:17:26;;;;;;;;;;;;;;;;;;5000786;28;20105;-70
2022/02/15 06:19:52;;;;;;;;;;;;;;;;;;5012503;28;20016;-69
2022/02/15 06:22:25;;;;;;;;;;;;;;;;;;4985155;28;20100;-69
2022/02/15 06:24:50;;;;;;;;;;;;;;;;;;4995485;28;20032;-68
2022/02/15 06:27:37;;;;;;;;;;;;;;;;;;5003880;28;19922;-70
2022/02/15 06:30:07;;;;;;;;;;;;;;;;;;5000977;28;19918;-69
2022/02/15 06:32:49;;;;;;;;;;;;;;;;;;4999045;28;19918;-66
2022/02/15 06:35:15;;;;;;;;;;;;;;;;;;4996916;28;19933;-66
2022/02/15 06:37:41;;;;;;;;;;;;;;;;;;5013593;28;19910;-66
2022/02/15 06:40:06;;;;;;;;;;;;;;;;;;5001378;28;19924;-67
2022/02/15 06:42:36;;;;;;;;;;;;;;;;;;4999246;28;20333;-69
2022/02/15 06:45:01;;;;;;;;;;;;;;;;;;4994345;28;19976;-68
2022/02/15 06:47:26;;;;;;;;;;;;;;;;;;5011100;28;19969;-69
2022/02/15 06:49:52;;;;;;;;;;;;;;;;;;4996545;28;20385;-69
2022/02/15 06:52:36;;;;;;;;;;;;;;;;;;4998022;28;19998;-68
2022/02/15 06:55:10;;;;;;;;;;;;;;;;;;4995510;28;19918;-68
2022/02/15 06:57:39;;;;;;;;;;;;;;;;;;4999093;28;19925;-68
2022/02/15 07:00:05;;;;;;;;;;;;;;;;;;4995247;28;19918;-68
2022/02/15 07:02:30;;;;;;;;;;;;;;;;;;4996618;28;19925;-68
2022/02/15 07:04:56;;;;;;;;;;;;;;;;;;4995896;28;20560;-68
2022/02/15 07:07:21;;;;;;;;;;;;;;;;;;4997170;28;19967;-68
2022/02/15 07:09:51;;;;;;;;;;;;;;;;;;5000757;28;19925;-68
2022/02/15 07:12:24;;;;;;;;;;;;;;;;;;4994737;28;20004;-67
2022/02/15 07:15:07;;;;;;;;;;;;;;;;;;4996321;28;20381;-68
2022/02/15 07:17:40;;;;;;;;;;;;;;;;;;4994540;28;19917;-67
2022/02/15 07:20:10;;;;;;;;;;;;;;;;;;4992227;28;19924;-69
2022/02/15 07:22:54;;;;;;;;;;;;;;;;;;4996739;28;20415;-70
2022/02/15 07:25:32;;;;;;;;;;;;;;;;;;4988907;28;19925;-69
2022/02/15 07:28:18;;;;;;;;;;;;;;;;;;4998764;28;20047;-69
2022/02/15 07:30:46;;;;;;;;;;;;;;;;;;4993395;28;20255;-69
2022/02/15 07:33:17;;;;;;;;;;;;;;;;;;4991119;28;20460;-69
2022/02/15 07:35:43;;;;;;;;;;;;;;;;;;4992682;28;19928;-69
2022/02/15 07:38:08;;;;;;;;;;;;;;;;;;4991263;28;19914;-68
2022/02/15 07:40:33;;;;;;;;;;;;;;;;;;4992131;28;19924;-68
2022/02/15 07:42:59;;;;;;;;;;;;;;;;;;4990835;28;20655;-68
2022/02/15 07:45:40;;;;;;;;;;;;;;;;;;4992702;28;20008;-64
2022/02/15 07:48:05;;;;;;;;;;;;;;;;;;4993223;28;20000;-62
2022/02/15 07:50:31;;;;;;;;;;;;;;;;;;4989374;28;19913;-63
2022/02/15 07:52:57;;;;;;;;;;;;;;;;;;4991787;28;19925;-63
2022/02/15 07:55:24;;;;;;;;;;;;;;;;;;4993397;28;19968;-63
2022/02/15 07:57:49;;;;;;;;;;;;;;;;;;4991526;28;19914;-64
2022/02/15 08:00:18;;;;;;;;;;;;;;;;;;4990983;28;20425;-64
2022/02/15 08:02:44;;;;;;;;;;;;;;;;;;4994061;28;19999;-62
2022/02/15 08:05:09;;;;;;;;;;;;;;;;;;4997809;28;19928;-63
2022/02/15 08:07:36;;;;;;;;;;;;;;;;;;4994967;28;20247;-63
2022/02/15 08:10:02;;;;;;;;;;;;;;;;;;4991659;28;19964;-63
2022/02/15 08:12:29;;;;;;;;;;;;;;;;;;4992115;28;20391;-63
2022/02/15 08:14:54;;;;;;;;;;;;;;;;;;4989963;28;19984;-64
2022/02/15 08:17:20;;;;;;;;;;;;;;;;;;4977988;28;19920;-63
2022/02/15 08:19:45;;;;;;;;;;;;;;;;;;4996410;28;20481;-64
2022/02/15 08:22:11;;;;;;;;;;;;;;;;;;4975963;28;19918;-63
2022/02/15 08:24:38;;;;;;;;;;;;;;;;;;4991367;28;20069;-65
2022/02/15 08:27:03;;;;;;;;;;;;;;;;;;4991693;28;20028;-64
2022/02/15 08:29:29;;;;;;;;;;;;;;;;;;4993183;28;19941;-64
2022/02/15 08:31:54;;;;;;;;;;;;;;;;;;4991534;28;19917;-64
2022/02/15 08:34:20;;;;;;;;;;;;;;;;;;4994355;28;20692;-64
2022/02/15 08:36:45;;;;;;;;;;;;;;;;;;4990413;28;19917;-64
2022/02/15 08:39:10;;;;;;;;;;;;;;;;;;4992305;28;20378;-65
2022/02/15 08:41:35;;;;;;;;;;;;;;;;;;4998123;28;19968;-64
2022/02/15 08:44:01;;;;;;;;;;;;;;;;;;4999706;28;19945;-63
2022/02/15 08:46:27;;;;;;;;;;;;;;;;;;4996415;28;19919;-64
2022/02/15 08:48:52;;;;;;;;;;;;;;;;;;4997096;28;20012;-64
2022/02/15 08:51:19;;;;;;;;;;;;;;;;;;4994394;28;20365;-64
2022/02/15 08:53:45;;;;;;;;;;;;;;;;;;4994455;28;19918;-64
2022/02/15 08:56:10;;;;;;;;;;;;;;;;;;4997783;28;19921;-64
2022/02/15 08:58:35;;;;;;;;;;;;;;;;;;4996735;28;19919;-64
2022/02/15 09:01:02;;;;;;;;;;;;;;;;;;4997155;28;20561;-65
2022/02/15 09:03:27;;;;;;;;;;;;;;;;;;4994229;28;19925;-64
2022/02/15 09:05:54;;;;;;;;;;;;;;;;;;4995168;28;19918;-64
2022/02/15 09:08:19;;;;;;;;;;;;;;;;;;4998551;28;20808;-64
2022/02/15 09:10:45;;;;;;;;;;;;;;;;;;4996092;28;19914;-64
2022/02/15 09:13:10;;;;;;;;;;;;;;;;;;4993353;28;19953;-64
2022/02/15 09:15:35;;;;;;;;;;;;;;;;;;4995445;28;19917;-65
2022/02/15 09:18:00;;;;;;;;;;;;;;;;;;4994259;28;19932;-64
2022/02/15 09:20:26;;;;;;;;;;;;;;;;;;4995926;28;20341;-65
2022/02/15 09:22:51;;;;;;;;;;;;;;;;;;4998883;28;19932;-65
2022/02/15 09:25:16;;;;;;;;;;;;;;;;;;4997122;28;19922;-63
2022/02/15 09:27:42;;;;;;;;;;;;;;;;;;4993840;28;19914;-65
2022/02/15 09:30:07;;;;;;;;;;;;;;;;;;4995654;28;20619;-64
2022/02/15 09:32:32;;;;;;;;;;;;;;;;;;4995086;28;19929;-65
2022/02/15 09:34:57;;;;;;;;;;;;;;;;;;4993714;28;20422;-64
2022/02/15 09:37:23;;;;;;;;;;;;;;;;;;4998211;28;19925;-64
2022/02/15 09:39:50;;;;;;;;;;;;;;;;;;4993497;28;20736;-63
2022/02/15 09:42:15;;;;;;;;;;;;;;;;;;4995382;28;20085;-65
2022/02/15 09:44:41;;;;;;;;;;;;;;;;;;4992908;28;20258;-63
2022/02/15 09:47:08;;;;;;;;;;;;;;;;;;4994890;28;19917;-63
2022/02/15 09:49:50;;;;;;;;;;;;;;;;;;4995773;28;19968;-63
2022/02/15 09:52:15;;;;;;;;;;;;;;;;;;4995560;28;19932;-63
2022/02/15 09:54:42;;;;;;;;;;;;;;;;;;4996031;28;19917;-62
2022/02/15 09:57:07;;;;;;;;;;;;;;;;;;4993797;28;20506;-63
2022/02/15 09:59:32;;;;;;;;;;;;;;;;;;4995407;28;19936;-64
2022/02/15 10:01:58;;;;;;;;;;;;;;;;;;4996600;28;19928;-64
2022/02/15 10:04:23;;;;;;;;;;;;;;;;;;4995678;28;19972;-64
2022/02/15 10:06:48;;;;;;;;;;;;;;;;;;4992837;28;20615;-63
2022/02/15 10:09:13;;;;;;;;;;;;;;;;;;4994904;28;19943;-64
2022/02/15 10:11:40;;;;;;;;;;;;;;;;;;4993722;28;19917;-64
2022/02/15 10:14:06;;;;;;;;;;;;;;;;;;4995154;28;19921;-63
2022/02/15 10:16:31;;;;;;;;;;;;;;;;;;4994194;28;19920;-64
2022/02/15 10:18:57;;;;;;;;;;;;;;;;;;4995547;28;20546;-65
2022/02/15 10:21:22;;;;;;;;;;;;;;;;;;4994808;28;19929;-63
2022/02/15 10:23:47;;;;;;;;;;;;;;;;;;4994087;28;19959;-64
2022/02/15 10:26:12;;;;;;;;;;;;;;;;;;4993915;28;19941;-63
2022/02/15 10:28:37;;;;;;;;;;;;;;;;;;4996461;28;19917;-63
2022/02/15 10:31:03;;;;;;;;;;;;;;;;;;4992993;28;19924;-64
2022/02/15 10:33:28;;;;;;;;;;;;;;;;;;4997129;28;19917;-64
2022/02/15 10:35:53;;;;;;;;;;;;;;;;;;4990253;28;20428;-67
2022/02/15 10:38:18;;;;;;;;;;;;;;;;;;4991294;28;20769;-67
2022/02/15 10:40:43;;;;;;;;;;;;;;;;;;4996763;28;19917;-68
2022/02/15 10:43:09;;;;;;;;;;;;;;;;;;5000240;28;20469;-67
2022/02/15 10:45:34;;;;;;;;;;;;;;;;;;4992246;28;19917;-67
2022/02/15 10:47:59;;;;;;;;;;;;;;;;;;4992354;28;19917;-67
2022/02/15 10:50:24;;;;;;;;;;;;;;;;;;4992356;28;19917;-67
2022/02/15 10:52:50;;;;;;;;;;;;;;;;;;4993947;28;19917;-67
2022/02/15 10:55:15;;;;;;;;;;;;;;;;;;4993916;28;19914;-66
2022/02/15 10:57:40;;;;;;;;;;;;;;;;;;4994554;28;19976;-65
2022/02/15 11:00:05;;;;;;;;;;;;;;;;;;4992766;28;20395;-66
2022/02/15 11:02:31;;;;;;;;;;;;;;;;;;4988097;28;20002;-64
2022/02/15 11:04:56;;;;;;;;;;;;;;;;;;4989981;28;19973;-64
2022/02/15 11:07:22;;;;;;;;;;;;;;;;;;4997085;28;19918;-62
2022/02/15 11:09:47;;;;;;;;;;;;;;;;;;4995117;28;19971;-65
2022/02/15 11:12:12;;;;;;;;;;;;;;;;;;4990106;28;19914;-68
2022/02/15 11:14:37;;;;;;;;;;;;;;;;;;4989683;28;19918;-68
2022/02/15 11:17:03;;;;;;;;;;;;;;;;;;4993676;28;19913;-66
2022/02/15 11:19:28;;;;;;;;;;;;;;;;;;4991881;28;19963;-67
2022/02/15 11:21:53;;;;;;;;;;;;;;;;;;4994345;28;20020;-66
2022/02/15 11:24:18;;;;;;;;;;;;;;;;;;4999696;28;19917;-66
2022/02/15 11:26:44;;;;;;;;;;;;;;;;;;4997163;28;19925;-67
2022/02/15 11:29:09;;;;;;;;;;;;;;;;;;4995615;28;19909;-65
2022/02/15 11:31:36;;;;;;;;;;;;;;;;;;4992512;28;19914;-66
2022/02/15 11:34:01;;;;;;;;;;;;;;;;;;4991694;28;20535;-65
2022/02/15 11:36:26;;;;;;;;;;;;;;;;;;4991835;28;19914;-64
2022/02/15 11:38:51;;;;;;;;;;;;;;;;;;4993282;28;20273;-65
2022/02/15 11:41:16;;;;;;;;;;;;;;;;;;4991433;28;19917;-66
2022/02/15 11:43:42;;;;;;;;;;;;;;;;;;4995392;28;19957;-65
2022/02/15 11:46:07;;;;;;;;;;;;;;;;;;4992061;28;19943;-65
2022/02/15 11:48:32;;;;;;;;;;;;;;;;;;4993063;28;19964;-66
2022/02/15 11:50:58;;;;;;;;;;;;;;;;;;4990202;28;19914;-66
2022/02/15 11:53:25;;;;;;;;;;;;;;;;;;4995081;28;19926;-64
2022/02/15 11:55:51;;;;;;;;;;;;;;;;;;4993986;28;19917;-65
2022/02/15 11:58:16;;;;;;;;;;;;;;;;;;4994437;28;19918;-65
2022/02/15 12:00:44;;;;;;;;;;;;;;;;;;4993886;28;19922;-66
2022/02/15 12:03:09;;;;;;;;;;;;;;;;;;4992240;28;19957;-67
2022/02/15 12:05:35;;;;;;;;;;;;;;;;;;4991004;28;19921;-69
2022/02/15 12:08:00;;;;;;;;;;;;;;;;;;4992179;28;19924;-67
2022/02/15 12:10:25;;;;;;;;;;;;;;;;;;4992866;28;19961;-66
2022/02/15 12:12:52;;;;;;;;;;;;;;;;;;4991761;28;19914;-64
2022/02/15 12:15:18;;;;;;;;;;;;;;;;;;4991413;28;19913;-66
2022/02/15 12:17:46;;;;;;;;;;;;;;;;;;4993319;28;20362;-68
2022/02/15 12:20:14;;;;;;;;;;;;;;;;;;4993267;28;20469;-66
2022/02/15 12:22:40;;;;;;;;;;;;;;;;;;4992499;28;19945;-66
2022/02/15 12:25:23;;;;;;;;;;;;;;;;;;4996523;28;19992;-66
2022/02/15 12:27:49;;;;;;;;;;;;;;;;;;4990150;28;19948;-66
2022/02/15 12:30:14;;;;;;;;;;;;;;;;;;4993545;28;20547;-65
2022/02/15 12:32:40;;;;;;;;;;;;;;;;;;4993078;28;19922;-66
2022/02/15 12:35:07;;;;;;;;;;;;;;;;;;4990545;28;19913;-64
2022/02/15 12:37:32;;;;;;;;;;;;;;;;;;4988419;28;19916;-66
2022/02/15 12:39:57;;;;;;;;;;;;;;;;;;4981840;28;19929;-64
2022/02/15 12:42:29;;;;;;;;;;;;;;;;;;4991088;28;20305;-65
2022/02/15 12:44:54;;;;;;;;;;;;;;;;;;4999065;28;20394;-66
2022/02/15 12:47:20;;;;;;;;;;;;;;;;;;4991547;28;19920;-65
2022/02/15 12:49:45;;;;;;;;;;;;;;;;;;4991284;28;19918;-64
2022/02/15 12:52:10;;;;;;;;;;;;;;;;;;4990766;28;19933;-64
2022/02/15 12:54:37;;;;;;;;;;;;;;;;;;4991314;28;19914;-66
2022/02/15 12:57:02;;;;;;;;;;;;;;;;;;4991530;28;19925;-66
2022/02/15 12:59:27;;;;;;;;;;;;;;;;;;4991833;28;19921;-66
2022/02/15 13:01:52;;;;;;;;;;;;;;;;;;4991056;28;19918;-64
2022/02/15 13:04:18;;;;;;;;;;;;;;;;;;4988785;28;19918;-66
2022/02/15 13:06:44;;;;;;;;;;;;;;;;;;4987776;28;19999;-66
2022/02/15 13:09:10;;;;;;;;;;;;;;;;;;4993390;28;20258;-66
2022/02/15 13:11:35;;;;;;;;;;;;;;;;;;5001939;28;19913;-65
2022/02/15 13:14:00;;;;;;;;;;;;;;;;;;4991750;28;20338;-66
2022/02/15 13:16:26;;;;;;;;;;;;;;;;;;4989473;28;19914;-66
2022/02/15 13:18:51;;;;;;;;;;;;;;;;;;4991811;28;19920;-66
2022/02/15 13:21:17;;;;;;;;;;;;;;;;;;4999312;28;19953;-66
2022/02/15 13:23:43;;;;;;;;;;;;;;;;;;4991500;28;20492;-65
2022/02/15 13:26:08;;;;;;;;;;;;;;;;;;4991764;28;20030;-65
2022/02/15 13:28:33;;;;;;;;;;;;;;;;;;4993021;28;20017;-64
2022/02/15 13:30:58;;;;;;;;;;;;;;;;;;4990580;28;19932;-65
2022/02/15 13:33:23;;;;;;;;;;;;;;;;;;4992602;28;19979;-64
2022/02/15 13:35:49;;;;;;;;;;;;;;;;;;4993897;28;19985;-66
2022/02/15 13:38:16;;;;;;;;;;;;;;;;;;4992959;28;19917;-65
2022/02/15 13:40:41;;;;;;;;;;;;;;;;;;4995720;28;19914;-66
2022/02/15 13:43:06;;;;;;;;;;;;;;;;;;4994493;28;20470;-66
2022/02/15 13:45:32;;;;;;;;;;;;;;;;;;4993026;28;20076;-67
2022/02/15 13:47:58;;;;;;;;;;;;;;;;;;4996252;28;19975;-65
2022/02/15 13:50:24;;;;;;;;;;;;;;;;;;4993462;28;19925;-64
2022/02/15 13:52:49;;;;;;;;;;;;;;;;;;4981074;28;19921;-65
2022/02/15 13:55:14;;;;;;;;;;;;;;;;;;4992911;28;19924;-65
2022/02/15 13:57:40;;;;;;;;;;;;;;;;;;4993714;28;20016;-64
2022/02/15 14:00:05;;;;;;;;;;;;;;;;;;4994165;28;19941;-65
2022/02/15 14:02:39;;;;;;;;;;;;;;;;;;4995128;28;20274;-65
2022/02/15 14:05:04;;;;;;;;;;;;;;;;;;5000860;28;19967;-65
2022/02/15 14:07:30;;;;;;;;;;;;;;;;;;4998442;28;19992;-65
2022/02/15 14:09:55;;;;;;;;;;;;;;;;;;4994849;28;19916;-65
2022/02/15 14:12:20;;;;;;;;;;;;;;;;;;4997062;28;19961;-66
2022/02/15 14:14:45;;;;;;;;;;;;;;;;;;4992685;28;19917;-65
2022/02/15 14:19:55;;;;;;;;;;;;;;;;;;4992446;28;19996;-66
2022/02/15 14:22:20;;;;;;;;;;;;;;;;;;4993896;28;20008;-66
2022/02/15 14:24:45;;;;;;;;;;;;;;;;;;4994852;28;19918;-66
2022/02/15 14:27:10;;;;;;;;;;;;;;;;;;4992011;28;19993;-66
2022/02/15 14:29:36;;;;;;;;;;;;;;;;;;4995769;28;19914;-65
2022/02/15 14:32:01;;;;;;;;;;;;;;;;;;4994734;28;19929;-65
2022/02/15 14:34:28;;;;;;;;;;;;;;;;;;4994558;28;19913;-65
2022/02/15 14:36:53;;;;;;;;;;;;;;;;;;4995929;28;19924;-64
2022/02/15 14:39:18;;;;;;;;;;;;;;;;;;4994777;28;19917;-65
2022/02/15 14:41:44;;;;;;;;;;;;;;;;;;4997929;28;19969;-64
2022/02/15 14:44:09;;;;;;;;;;;;;;;;;;4994841;28;20036;-66
2022/02/15 14:46:34;;;;;;;;;;;;;;;;;;4995972;28;19924;-65
2022/02/15 14:48:59;;;;;;;;;;;;;;;;;;5002517;28;20021;-65
2022/02/15 14:51:25;;;;;;;;;;;;;;;;;;4994839;28;19913;-66
2022/02/15 14:53:52;;;;;;;;;;;;;;;;;;4995416;28;19949;-64
2022/02/15 14:56:17;;;;;;;;;;;;;;;;;;4996501;28;19914;-65
2022/02/15 14:58:43;;;;;;;;;;;;;;;;;;4995156;28;19924;-65
2022/02/15 15:01:08;;;;;;;;;;;;;;;;;;4997656;28;19948;-64
2022/02/15 15:03:34;;;;;;;;;;;;;;;;;;4995351;28;19980;-66
2022/02/15 15:05:59;;;;;;;;;;;;;;;;;;4998002;28;20000;-64
2022/02/15 15:08:24;;;;;;;;;;;;;;;;;;4997642;28;20375;-64
2022/02/15 15:10:50;;;;;;;;;;;;;;;;;;4994811;28;20123;-65
2022/02/15 15:13:15;;;;;;;;;;;;;;;;;;4996386;28;19920;-64
2022/02/15 15:15:41;;;;;;;;;;;;;;;;;;4998271;28;19921;-65
2022/02/15 15:18:06;;;;;;;;;;;;;;;;;;4996392;28;19921;-64
2022/02/15 15:20:31;;;;;;;;;;;;;;;;;;4995946;28;19922;-64
2022/02/15 15:22:56;;;;;;;;;;;;;;;;;;5001494;28;19922;-63
2022/02/15 15:25:22;;;;;;;;;;;;;;;;;;4993108;28;19922;-64
2022/02/15 15:27:47;;;;;;;;;;;;;;;;;;4989862;28;19992;-65
2022/02/15 15:30:13;;;;;;;;;;;;;;;;;;4993837;28;19953;-65
2022/02/15 15:32:39;;;;;;;;;;;;;;;;;;4993462;28;20530;-67
2022/02/15 15:35:05;;;;;;;;;;;;;;;;;;4992169;28;19929;-65
2022/02/15 15:37:33;;;;;;;;;;;;;;;;;;4992077;28;19918;-67
2022/02/15 15:39:58;;;;;;;;;;;;;;;;;;4991076;28;19917;-64
2022/02/15 15:42:23;;;;;;;;;;;;;;;;;;4993836;28;19921;-64
2022/02/15 15:44:50;;;;;;;;;;;;;;;;;;4992109;28;20032;-64
2022/02/15 15:47:15;;;;;;;;;;;;;;;;;;4991653;28;19917;-62
2022/02/15 15:49:40;;;;;;;;;;;;;;;;;;4992315;28;19920;-62
2022/02/15 15:52:06;;;;;;;;;;;;;;;;;;4991573;28;20337;-62
2022/02/15 15:54:31;;;;;;;;;;;;;;;;;;4990873;28;19914;-63
2022/02/15 15:56:56;;;;;;;;;;;;;;;;;;4993081;28;19974;-63
2022/02/15 15:59:21;;;;;;;;;;;;;;;;;;4991150;28;19913;-62
2022/02/15 16:01:48;;;;;;;;;;;;;;;;;;4991300;28;19921;-63
2022/02/15 16:04:14;;;;;;;;;;;;;;;;;;4990232;28;19921;-63
2022/02/15 16:06:44;;;;;;;;;;;;;;;;;;4992439;28;19928;-63
2022/02/15 16:09:10;;;;;;;;;;;;;;;;;;4995384;28;19913;-63
2022/02/15 16:11:35;;;;;;;;;;;;;;;;;;4994620;28;19914;-65
2022/02/15 16:14:00;;;;;;;;;;;;;;;;;;4992235;28;19918;-64
2022/02/15 16:16:25;;;;;;;;;;;;;;;;;;4989539;28;20580;-64
2022/02/15 16:18:51;;;;;;;;;;;;;;;;;;4989816;28;19971;-64
2022/02/15 16:21:17;;;;;;;;;;;;;;;;;;4980942;28;19909;-66
2022/02/15 16:23:42;;;;;;;;;;;;;;;;;;4992797;28;19913;-64
2022/02/15 16:26:07;;;;;;;;;;;;;;;;;;4990334;28;19953;-63
2022/02/15 16:28:32;;;;;;;;;;;;;;;;;;4989855;28;20422;-63
2022/02/15 16:30:58;;;;;;;;;;;;;;;;;;4990369;28;20383;-62
2022/02/15 16:33:23;;;;;;;;;;;;;;;;;;4992801;28;19918;-63
2022/02/15 16:35:48;;;;;;;;;;;;;;;;;;4991382;28;19964;-65
2022/02/15 16:38:14;;;;;;;;;;;;;;;;;;4992991;28;19952;-64
2022/02/15 16:40:39;;;;;;;;;;;;;;;;;;4993246;28;20340;-64
2022/02/15 16:43:04;;;;;;;;;;;;;;;;;;4993627;28;20901;-65
2022/02/15 16:45:30;;;;;;;;;;;;;;;;;;4991871;28;20263;-65
2022/02/15 16:47:58;;;;;;;;;;;;;;;;;;4994002;28;19921;-64
2022/02/15 16:50:23;;;;;;;;;;;;;;;;;;4989200;28;19917;-66